createdAt,value
2018-01-28T00:01:45.642Z,2.13
2018-01-28T00:04:13.204Z,2.20
2018-01-28T00:06:40.822Z,2.50
2018-01-28T00:09:08.374Z,2.50
2018-01-28T00:11:35.944Z,1.60
2018-01-28T00:14:03.564Z,2.17
2018-01-28T00:16:31.106Z,2.10
2018-01-28T00:18:58.677Z,2.77
2018-01-28T00:21:26.302Z,1.93
2018-01-28T00:23:53.864Z,2.43
2018-01-28T00:26:21.429Z,2.30
2018-01-28T00:28:49.014Z,2.80
2018-01-28T00:31:16.590Z,1.97
2018-01-28T00:33:44.923Z,2.13
2018-01-28T00:36:12.538Z,3.03
2018-01-28T00:38:40.901Z,2.40
2018-01-28T00:41:09.328Z,2.80
2018-01-28T00:43:36.932Z,2.63
2018-01-28T00:46:04.501Z,1.90
2018-01-28T00:48:32.822Z,2.17
2018-01-28T00:51:00.444Z,2.40
2018-01-28T00:53:28.770Z,2.30
2018-01-28T00:55:56.382Z,2.67
2018-01-28T00:58:24.946Z,2.50
2018-01-28T01:00:52.514Z,2.30
2018-01-28T01:03:20.076Z,2.60
2018-01-28T01:05:47.770Z,2.73
2018-01-28T01:08:15.310Z,2.20
2018-01-28T01:10:43.642Z,1.80
2018-01-28T01:13:11.424Z,3.00
2018-01-28T01:15:38.998Z,2.20
2018-01-28T01:18:06.542Z,2.00
2018-01-28T01:20:34.134Z,2.03
2018-01-28T01:23:02.516Z,2.87
2018-01-28T01:25:31.042Z,3.00
2018-01-28T01:27:58.669Z,2.00
2018-01-28T01:30:26.257Z,2.30
2018-01-28T01:32:53.834Z,3.20
2018-01-28T01:35:21.428Z,2.40
2018-01-28T01:37:49.760Z,2.70
2018-01-28T01:40:17.517Z,3.27
2018-01-28T01:42:45.124Z,2.40
2018-01-28T01:45:12.666Z,2.57
2018-01-28T01:47:40.204Z,2.27
2018-01-28T01:50:07.794Z,2.30
2018-01-28T01:52:35.340Z,2.17
2018-01-28T01:55:02.904Z,2.40
2018-01-28T01:57:30.493Z,2.53
2018-01-28T01:59:58.804Z,2.40
2018-01-28T02:02:26.378Z,1.70
2018-01-28T02:04:54.157Z,2.10
2018-01-28T02:07:21.727Z,2.00
2018-01-28T02:09:49.346Z,2.57
2018-01-28T02:12:16.957Z,1.90
2018-01-28T02:14:44.517Z,2.53
2018-01-28T02:17:12.201Z,2.27
2018-01-28T02:19:40.587Z,1.73
2018-01-28T02:22:08.120Z,2.30
2018-01-28T02:24:35.703Z,2.13
2018-01-28T02:27:04.040Z,2.10
2018-01-28T02:29:31.559Z,2.43
2018-01-28T02:31:59.145Z,1.87
2018-01-28T02:34:26.741Z,2.20
2018-01-28T02:36:55.115Z,2.23
2018-01-28T02:39:22.647Z,2.10
2018-01-28T02:41:50.252Z,1.87
2018-01-28T02:44:18.608Z,1.87
2018-01-28T02:46:46.927Z,1.83
2018-01-28T02:49:14.565Z,1.93
2018-01-28T02:51:42.879Z,2.43
2018-01-28T02:54:10.449Z,1.70
2018-01-28T02:56:38.043Z,1.80
2018-01-28T02:59:05.609Z,1.70
2018-01-28T03:01:33.959Z,2.20
2018-01-28T03:04:01.561Z,2.33
2018-01-28T03:06:30.035Z,1.80
2018-01-28T03:08:58.344Z,1.87
2018-01-28T03:11:25.981Z,1.90
2018-01-28T03:13:54.473Z,2.17
2018-01-28T03:16:22.013Z,1.50
2018-01-28T03:18:49.629Z,1.57
2018-01-28T03:21:17.185Z,1.70
2018-01-28T03:23:44.767Z,1.80
2018-01-28T03:26:12.489Z,2.20
2018-01-28T03:28:40.047Z,1.93
2018-01-28T03:31:07.630Z,2.13
2018-01-28T03:33:35.313Z,1.83
2018-01-28T03:36:02.865Z,1.80
2018-01-28T03:38:30.431Z,1.70
2018-01-28T03:40:59.525Z,1.70
2018-01-28T03:43:27.091Z,1.80
2018-01-28T03:45:54.633Z,1.60
2018-01-28T03:48:22.318Z,2.00
2018-01-28T03:50:49.877Z,1.53
2018-01-28T03:53:17.459Z,1.87
2018-01-28T03:55:45.401Z,2.20
2018-01-28T03:58:14.608Z,1.23
2018-01-28T04:00:42.157Z,2.10
2018-01-28T04:03:09.829Z,2.20
2018-01-28T04:05:37.393Z,2.03
2018-01-28T04:08:04.945Z,1.20
2018-01-28T04:10:32.539Z,1.50
2018-01-28T04:13:00.327Z,1.83
2018-01-28T04:15:27.881Z,2.20
2018-01-28T04:17:55.675Z,2.17
2018-01-28T04:20:23.217Z,1.83
2018-01-28T04:22:50.771Z,1.37
2018-01-28T04:25:18.373Z,1.27
2018-01-28T04:27:45.925Z,1.50
2018-01-28T04:30:14.977Z,1.33
2018-01-28T04:32:42.623Z,1.10
2018-01-28T04:35:10.178Z,1.30
2018-01-28T04:37:37.761Z,1.37
2018-01-28T04:40:05.548Z,1.50
2018-01-28T04:42:33.089Z,0.80
2018-01-28T04:45:02.277Z,1.40
2018-01-28T04:47:30.153Z,1.20
2018-01-28T04:49:57.757Z,1.70
2018-01-28T04:52:25.293Z,1.40
2018-01-28T04:54:52.873Z,1.80
2018-01-28T04:57:20.467Z,1.53
2018-01-28T04:59:48.029Z,1.47
2018-01-28T05:02:16.451Z,1.83
2018-01-28T05:04:44.061Z,1.37
2018-01-28T05:07:12.386Z,1.53
2018-01-28T05:09:39.925Z,1.10
2018-01-28T05:12:07.562Z,1.33
2018-01-28T05:14:35.061Z,1.20
2018-01-28T05:17:02.621Z,1.33
2018-01-28T05:19:30.226Z,1.50
2018-01-28T05:21:58.539Z,1.10
2018-01-28T05:24:26.079Z,1.37
2018-01-28T05:26:53.715Z,1.30
2018-01-28T05:29:22.024Z,1.10
2018-01-28T05:31:49.624Z,1.27
2018-01-28T05:34:17.224Z,1.60
2018-01-28T05:36:45.570Z,0.83
2018-01-28T05:39:13.200Z,1.67
2018-01-28T05:41:40.808Z,1.10
2018-01-28T05:44:08.339Z,1.20
2018-01-28T05:46:35.932Z,1.10
2018-01-28T05:49:03.522Z,0.80
2018-01-28T05:51:31.069Z,0.93
2018-01-28T05:53:59.400Z,1.17
2018-01-28T05:56:27.275Z,1.87
2018-01-28T05:58:54.882Z,1.27
2018-01-28T06:01:22.552Z,0.60
2018-01-28T06:03:50.161Z,1.13
2018-01-28T06:06:17.713Z,1.00
2018-01-28T06:08:45.410Z,0.80
2018-01-28T06:11:13.769Z,1.33
2018-01-28T06:13:41.313Z,1.37
2018-01-28T06:16:08.854Z,1.33
2018-01-28T06:18:36.450Z,0.83
2018-01-28T06:21:03.990Z,1.70
2018-01-28T06:23:31.550Z,1.50
2018-01-28T06:25:59.196Z,0.80
2018-01-28T06:28:26.735Z,1.20
2018-01-28T06:30:54.389Z,1.33
2018-01-28T06:33:22.026Z,0.90
2018-01-28T06:35:50.366Z,0.80
2018-01-28T06:38:17.942Z,1.20
2018-01-28T06:40:45.553Z,0.80
2018-01-28T06:43:13.102Z,1.13
2018-01-28T06:45:40.656Z,1.13
2018-01-28T06:48:08.248Z,0.93
2018-01-28T06:50:35.810Z,0.70
2018-01-28T06:53:04.192Z,1.10
2018-01-28T06:55:31.794Z,0.97
2018-01-28T06:57:59.351Z,0.93
2018-01-28T07:00:26.886Z,0.90
2018-01-28T07:02:54.519Z,1.00
2018-01-28T07:05:22.050Z,0.90
2018-01-28T07:07:49.600Z,0.70
2018-01-28T07:10:17.960Z,0.90
2018-01-28T07:12:46.293Z,0.80
2018-01-28T07:15:13.860Z,0.80
2018-01-28T07:17:41.620Z,1.53
2018-01-28T07:20:09.222Z,1.70
2018-01-28T07:22:37.533Z,1.23
2018-01-28T07:25:05.127Z,1.30
2018-01-28T07:27:32.800Z,1.60
2018-01-28T07:30:00.344Z,0.90
2018-01-28T07:32:27.962Z,1.00
2018-01-28T07:34:55.510Z,1.25
2018-01-28T07:37:23.944Z,1.03
2018-01-28T07:39:51.523Z,1.00
2018-01-28T07:42:19.224Z,3.27
2018-01-28T07:44:47.574Z,1.90
2018-01-28T07:47:15.176Z,1.47
2018-01-28T07:49:42.728Z,1.40
2018-01-28T07:52:11.137Z,1.10
2018-01-28T07:54:38.712Z,1.40
2018-01-28T07:57:06.315Z,1.33
2018-01-28T07:59:34.693Z,0.80
2018-01-28T08:02:02.225Z,1.30
2018-01-28T08:04:29.846Z,0.87
2018-01-28T08:06:57.460Z,1.07
2018-01-28T08:09:25.018Z,1.20
2018-01-28T08:12:07.592Z,0.90
2018-01-28T08:14:38.396Z,1.10
2018-01-28T08:17:06.143Z,0.80
2018-01-28T08:19:34.743Z,1.00
2018-01-28T08:22:03.136Z,1.00
2018-01-28T08:24:30.719Z,0.90
2018-01-28T08:26:59.034Z,0.90
2018-01-28T08:29:28.587Z,1.10
2018-01-28T08:31:56.297Z,0.90
2018-01-28T08:34:23.905Z,0.80
2018-01-28T08:36:51.511Z,0.90
2018-01-28T08:39:19.078Z,0.83
2018-01-28T08:41:46.619Z,1.00
2018-01-28T08:44:14.263Z,0.60
2018-01-28T08:46:41.932Z,0.87
2018-01-28T08:49:09.436Z,1.20
2018-01-28T08:51:37.867Z,1.07
2018-01-28T08:54:06.387Z,0.90
2018-01-28T08:56:34.134Z,0.83
2018-01-28T08:59:02.101Z,1.10
2018-01-28T09:01:29.931Z,1.27
2018-01-28T09:03:57.499Z,0.60
2018-01-28T09:06:25.119Z,0.97
2018-01-28T09:08:54.585Z,1.00
2018-01-28T09:11:22.826Z,0.90
2018-01-28T09:13:50.613Z,0.90
2018-01-28T09:16:18.203Z,1.03
2018-01-28T09:18:45.767Z,1.00
2018-01-28T09:21:13.341Z,0.90
2018-01-28T09:23:41.669Z,1.00
2018-01-28T09:26:09.247Z,0.73
2018-01-28T09:28:36.865Z,1.10
2018-01-28T09:31:04.599Z,0.90
2018-01-28T09:33:32.259Z,1.93
2018-01-28T09:36:00.668Z,0.87
2018-01-28T09:38:28.215Z,1.83
2018-01-28T09:40:56.776Z,0.97
2018-01-28T09:43:24.403Z,1.93
2018-01-28T09:45:51.977Z,1.00
2018-01-28T09:48:19.561Z,1.10
2018-01-28T09:50:47.999Z,1.10
2018-01-28T09:53:15.603Z,0.80
2018-01-28T09:55:43.309Z,1.83
2018-01-28T09:58:11.039Z,1.23
2018-01-28T10:00:39.373Z,0.97
2018-01-28T10:03:06.950Z,3.00
2018-01-28T10:05:34.605Z,2.17
2018-01-28T10:08:02.150Z,2.33
2018-01-28T10:10:29.785Z,1.93
2018-01-28T10:12:57.375Z,1.20
2018-01-28T10:15:25.051Z,0.80
2018-01-28T10:17:52.597Z,1.77
2018-01-28T10:20:20.139Z,1.83
2018-01-28T10:22:47.736Z,1.33
2018-01-28T10:25:16.848Z,0.87
2018-01-28T10:27:45.258Z,1.00
2018-01-28T10:30:12.840Z,1.03
2018-01-28T10:32:40.434Z,1.47
2018-01-28T10:35:08.052Z,1.57
2018-01-28T10:37:35.761Z,0.90
2018-01-28T10:40:03.385Z,1.70
2018-01-28T10:42:31.024Z,1.40
2018-01-28T10:44:58.738Z,1.23
2018-01-28T10:47:26.336Z,0.73
2018-01-28T10:49:53.876Z,1.50
2018-01-28T10:52:22.190Z,1.20
2018-01-28T10:54:49.786Z,1.03
2018-01-28T10:57:17.377Z,1.07
2018-01-28T10:59:46.644Z,1.00
2018-01-28T11:02:14.195Z,1.17
2018-01-28T11:04:41.799Z,0.80
2018-01-28T11:07:10.354Z,0.77
2018-01-28T11:09:37.930Z,0.83
2018-01-28T11:12:05.494Z,1.00
2018-01-28T11:14:33.866Z,0.93
2018-01-28T11:17:01.406Z,2.30
2018-01-28T11:19:28.982Z,1.03
2018-01-28T11:21:56.580Z,0.93
2018-01-28T11:24:24.138Z,0.60
2018-01-28T11:26:51.696Z,1.00
2018-01-28T11:29:19.468Z,0.87
2018-01-28T11:31:47.143Z,0.80
2018-01-28T11:34:14.794Z,0.80
2018-01-28T11:36:42.337Z,0.80
2018-01-28T11:39:09.889Z,0.90
2018-01-28T11:41:38.282Z,0.90
2018-01-28T11:44:05.847Z,0.60
2018-01-28T11:46:34.950Z,1.10
2018-01-28T11:49:02.572Z,0.83
2018-01-28T11:51:30.148Z,0.60
2018-01-28T11:53:58.714Z,0.63
2018-01-28T11:56:27.176Z,0.60
2018-01-28T11:58:54.747Z,0.80
2018-01-28T12:01:22.312Z,0.90
2018-01-28T12:03:50.677Z,2.70
2018-01-28T12:06:18.254Z,0.90
2018-01-28T12:08:46.570Z,0.73
2018-01-28T12:11:14.178Z,1.17
2018-01-28T12:13:41.848Z,0.67
2018-01-28T12:16:10.170Z,1.30
2018-01-28T12:18:37.782Z,0.60
2018-01-28T12:21:05.314Z,0.60
2018-01-28T12:23:32.868Z,1.07
2018-01-28T12:26:00.488Z,1.23
2018-01-28T12:28:28.032Z,0.57
2018-01-28T12:30:56.356Z,1.10
2018-01-28T12:33:24.007Z,0.60
2018-01-28T12:35:51.572Z,0.60
2018-01-28T12:38:19.132Z,0.60
2018-01-28T12:40:46.830Z,0.60
2018-01-28T12:43:14.338Z,1.00
2018-01-28T12:45:41.892Z,0.50
2018-01-28T12:48:09.581Z,1.37
2018-01-28T12:50:37.152Z,0.90
2018-01-28T12:53:04.728Z,0.60
2018-01-28T12:55:32.316Z,0.50
2018-01-28T12:58:02.934Z,1.93
2018-01-28T13:00:30.532Z,2.13
2018-01-28T13:02:58.078Z,1.20
2018-01-28T13:05:25.714Z,1.20
2018-01-28T13:07:53.354Z,0.83
2018-01-28T13:10:20.912Z,0.60
2018-01-28T13:12:48.476Z,0.77
2018-01-28T13:15:16.262Z,0.80
2018-01-28T13:17:43.856Z,1.37
2018-01-28T13:20:11.639Z,0.80
2018-01-28T13:22:39.265Z,1.00
2018-01-28T13:25:07.592Z,0.90
2018-01-28T13:27:35.194Z,0.83
2018-01-28T13:30:03.550Z,0.57
2018-01-28T13:32:32.608Z,0.80
2018-01-28T13:35:00.366Z,0.90
2018-01-28T13:37:27.945Z,1.80
2018-01-28T13:39:55.537Z,0.87
2018-01-28T13:42:23.314Z,0.70
2018-01-28T13:44:51.641Z,0.90
2018-01-28T13:47:19.246Z,0.70
2018-01-28T13:49:47.571Z,1.20
2018-01-28T13:52:15.128Z,1.90
2018-01-28T13:54:42.720Z,0.70
2018-01-28T13:57:10.552Z,1.13
2018-01-28T13:59:38.208Z,0.87
2018-01-28T14:02:05.841Z,1.40
2018-01-28T14:04:34.142Z,1.23
2018-01-28T14:07:01.789Z,1.40
2018-01-28T14:09:30.279Z,0.90
2018-01-28T14:11:57.820Z,3.23
2018-01-28T14:14:26.228Z,1.30
2018-01-28T14:16:53.834Z,1.10
2018-01-28T14:19:21.440Z,1.70
2018-01-28T14:21:49.047Z,1.10
2018-01-28T14:24:16.633Z,1.27
2018-01-28T14:26:44.298Z,2.70
2018-01-28T14:29:12.669Z,1.30
2018-01-28T14:31:40.214Z,1.50
2018-01-28T14:34:07.837Z,1.37
2018-01-28T14:36:35.389Z,1.00
2018-01-28T14:39:03.057Z,1.30
2018-01-28T14:41:30.671Z,0.97
2018-01-28T14:43:58.271Z,0.70
2018-01-28T14:46:26.081Z,1.00
2018-01-28T14:48:53.805Z,0.97
2018-01-28T14:51:21.401Z,1.13
2018-01-28T14:53:48.971Z,2.77
2018-01-28T14:56:16.539Z,0.90
2018-01-28T14:58:45.015Z,0.80
2018-01-28T15:01:13.366Z,0.70
2018-01-28T15:03:40.943Z,1.03
2018-01-28T15:06:08.576Z,1.20
2018-01-28T15:08:36.252Z,1.80
2018-01-28T15:11:03.816Z,0.67
2018-01-28T15:13:31.427Z,0.60
2018-01-28T15:15:59.009Z,1.10
2018-01-28T15:18:26.585Z,0.80
2018-01-28T15:20:54.185Z,1.27
2018-01-28T15:23:24.459Z,0.60
2018-01-28T15:25:52.221Z,0.43
2018-01-28T15:28:20.749Z,1.07
2018-01-28T15:30:48.305Z,0.50
2018-01-28T15:33:16.015Z,0.60
2018-01-28T15:35:44.867Z,0.60
2018-01-28T15:38:13.230Z,1.00
2018-01-28T15:40:40.833Z,0.50
2018-01-28T15:43:08.409Z,1.10
2018-01-28T15:45:35.971Z,0.90
2018-01-28T15:48:03.561Z,0.87
2018-01-28T15:50:31.135Z,0.90
2018-01-28T15:52:58.729Z,1.30
2018-01-28T15:55:26.338Z,1.13
2018-01-28T15:57:53.940Z,1.67
2018-01-28T16:00:22.485Z,1.90
2018-01-28T16:02:50.157Z,1.00
2018-01-28T16:05:17.767Z,1.07
2018-01-28T16:07:45.455Z,1.13
2018-01-28T16:10:13.058Z,1.30
2018-01-28T16:12:41.423Z,2.33
2018-01-28T16:15:09.102Z,1.00
2018-01-28T16:17:37.478Z,0.87
2018-01-28T16:20:05.822Z,1.00
2018-01-28T16:22:33.401Z,0.97
2018-01-28T16:25:01.763Z,1.53
2018-01-28T16:27:29.343Z,0.80
2018-01-28T16:29:57.715Z,1.03
2018-01-28T16:32:26.053Z,1.30
2018-01-28T16:34:53.659Z,5.00
2018-01-28T16:37:21.280Z,78.07
2018-01-28T16:39:48.878Z,348.17
2018-01-28T16:42:17.265Z,381.00
2018-01-28T16:44:45.914Z,192.10
2018-01-28T16:47:13.482Z,218.93
2018-01-28T16:49:41.150Z,275.40
2018-01-28T16:52:10.331Z,274.00
2018-01-28T16:54:37.992Z,268.53
2018-01-28T16:57:05.606Z,266.10
2018-01-28T16:59:33.937Z,234.80
2018-01-28T17:02:01.607Z,209.83
2018-01-28T17:04:29.806Z,196.73
2018-01-28T17:06:58.186Z,193.27
2018-01-28T17:09:26.576Z,179.83
2018-01-28T17:11:54.974Z,167.80
2018-01-28T17:14:22.551Z,156.93
2018-01-28T17:16:50.156Z,145.10
2018-01-28T17:19:17.723Z,134.13
2018-01-28T17:21:46.335Z,126.50
2018-01-28T17:24:13.977Z,120.20
2018-01-28T17:26:42.316Z,126.30
2018-01-28T17:29:09.930Z,118.80
2018-01-28T17:31:37.600Z,118.87
2018-01-28T17:34:05.195Z,112.47
2018-01-28T17:36:32.766Z,112.57
2018-01-28T17:39:01.716Z,112.00
2018-01-28T17:41:29.330Z,104.97
2018-01-28T17:43:56.968Z,108.13
2018-01-28T17:46:24.583Z,104.97
2018-01-28T17:48:52.227Z,98.20
2018-01-28T17:51:20.638Z,104.23
2018-01-28T17:53:48.244Z,96.47
2018-01-28T17:56:16.734Z,96.90
2018-01-28T17:58:44.443Z,89.47
2018-01-28T18:01:12.008Z,87.63
2018-01-28T18:03:39.631Z,82.30
2018-01-28T18:06:08.150Z,80.30
2018-01-28T18:08:35.760Z,75.47
2018-01-28T18:11:03.408Z,76.60
2018-01-28T18:13:30.986Z,73.93
2018-01-28T18:15:58.574Z,70.33
2018-01-28T18:18:26.237Z,67.63
2018-01-28T18:20:53.818Z,69.40
2018-01-28T18:23:21.415Z,63.07
2018-01-28T18:25:49.061Z,64.57
2018-01-28T18:28:16.762Z,63.40
2018-01-28T18:30:45.149Z,57.97
2018-01-28T18:33:13.593Z,61.93
2018-01-28T18:35:41.206Z,57.10
2018-01-28T18:38:08.776Z,59.10
2018-01-28T18:40:36.516Z,53.90
2018-01-28T18:43:04.189Z,56.27
2018-01-28T18:45:31.796Z,52.20
2018-01-28T18:47:59.430Z,51.83
2018-01-28T18:50:27.024Z,51.47
2018-01-28T18:52:54.782Z,48.37
2018-01-28T18:55:22.509Z,44.23
2018-01-28T18:57:50.136Z,43.60
2018-01-28T19:00:18.550Z,44.87
2018-01-28T19:02:46.334Z,40.47
2018-01-28T19:05:13.954Z,42.07
2018-01-28T19:07:41.576Z,41.87
2018-01-28T19:10:09.195Z,39.10
2018-01-28T19:12:36.875Z,38.47
2018-01-28T19:15:05.368Z,40.50
2018-01-28T19:17:32.977Z,34.90
2018-01-28T19:20:01.397Z,35.27
2018-01-28T19:22:29.819Z,33.20
2018-01-28T19:24:57.446Z,37.37
2018-01-28T19:27:25.141Z,31.23
2018-01-28T19:29:52.734Z,33.07
2018-01-28T19:32:20.610Z,29.50
2018-01-28T19:34:48.216Z,31.37
2018-01-28T19:37:15.878Z,29.00
2018-01-28T19:39:43.529Z,29.60
2018-01-28T19:42:11.158Z,29.93
2018-01-28T19:44:38.763Z,30.07
2018-01-28T19:47:07.181Z,27.10
2018-01-28T19:49:34.825Z,26.47
2018-01-28T19:52:03.322Z,27.37
2018-01-28T19:54:31.575Z,26.07
2018-01-28T19:57:00.696Z,26.70
2018-01-28T19:59:28.315Z,26.97
2018-01-28T20:01:56.109Z,24.40
2018-01-28T20:04:24.583Z,22.10
2018-01-28T20:06:53.631Z,23.33
2018-01-28T20:09:21.302Z,22.23
2018-01-28T20:11:48.908Z,21.63
2018-01-28T20:14:17.279Z,21.30
2018-01-28T20:16:45.731Z,21.17
2018-01-28T20:19:13.419Z,19.73
2018-01-28T20:21:42.480Z,21.60
2018-01-28T20:24:10.657Z,19.73
2018-01-28T20:26:39.195Z,20.60
2018-01-28T20:29:07.697Z,19.30
2018-01-28T20:31:35.367Z,18.93
2018-01-28T20:34:02.973Z,18.53
2018-01-28T20:36:31.367Z,16.87
2018-01-28T20:38:59.119Z,16.23
2018-01-28T20:41:27.526Z,17.43
2018-01-28T20:43:55.273Z,17.60
2018-01-28T20:46:23.876Z,15.40
2018-01-28T20:48:51.457Z,17.00
2018-01-28T20:51:19.090Z,16.17
2018-01-28T20:53:47.441Z,16.20
2018-01-28T20:56:15.852Z,14.17
2018-01-28T20:58:43.573Z,13.37
2018-01-28T21:01:11.192Z,13.33
2018-01-28T21:03:38.800Z,12.70
2018-01-28T21:06:06.490Z,13.60
2018-01-28T21:08:34.828Z,13.30
2018-01-28T21:11:02.713Z,12.53
2018-01-28T21:13:30.392Z,12.17
2018-01-28T21:15:58.490Z,12.10
2018-01-28T21:18:26.074Z,11.67
2018-01-28T21:20:54.099Z,11.67
2018-01-28T21:23:21.716Z,13.33
2018-01-28T21:25:49.548Z,12.80
2018-01-28T21:28:17.361Z,11.50
2018-01-28T21:30:45.147Z,9.90
2018-01-28T21:33:13.568Z,10.83
2018-01-28T21:35:41.231Z,11.13
2018-01-28T21:38:08.853Z,10.33
2018-01-28T21:40:37.286Z,9.77
2018-01-28T21:43:04.895Z,10.57
2018-01-28T21:45:33.291Z,10.40
2018-01-28T21:48:00.856Z,9.67
2018-01-28T21:50:28.449Z,9.93
2018-01-28T21:52:56.058Z,9.10
2018-01-28T21:55:24.391Z,8.20
2018-01-28T21:57:52.010Z,8.13
2018-01-28T22:00:19.561Z,8.20
2018-01-28T22:02:48.100Z,6.87
2018-01-28T22:05:16.233Z,7.90
2018-01-28T22:07:43.804Z,6.57
2018-01-28T22:10:11.365Z,7.00
2018-01-28T22:12:38.970Z,6.07
2018-01-28T22:15:07.311Z,6.00
2018-01-28T22:17:34.868Z,7.07
2018-01-28T22:20:02.613Z,6.70
2018-01-28T22:22:30.188Z,6.50
2018-01-28T22:24:57.787Z,6.77
2018-01-28T22:27:26.306Z,7.00
2018-01-28T22:29:53.892Z,5.60
2018-01-28T22:32:21.490Z,5.50
2018-01-28T22:34:49.099Z,5.50
2018-01-28T22:37:16.655Z,5.50
2018-01-28T22:39:44.254Z,5.43
2018-01-28T22:42:11.815Z,4.43
2018-01-28T22:44:40.894Z,4.97
2018-01-28T22:47:08.512Z,4.30
2018-01-28T22:49:36.066Z,4.60
2018-01-28T22:52:03.625Z,5.10
2018-01-28T22:54:31.230Z,3.70
2018-01-28T22:56:58.804Z,4.70
2018-01-28T22:59:26.404Z,4.90
2018-01-28T23:01:53.982Z,4.40
2018-01-28T23:04:21.548Z,3.33
2018-01-28T23:06:49.130Z,4.10
2018-01-28T23:09:16.743Z,3.70
2018-01-28T23:11:44.325Z,4.90
2018-01-28T23:14:11.879Z,3.20
2018-01-28T23:16:39.549Z,3.13
2018-01-28T23:19:07.106Z,4.20
2018-01-28T23:21:34.756Z,3.37
2018-01-28T23:24:02.386Z,3.27
2018-01-28T23:26:30.606Z,3.50
2018-01-28T23:28:58.289Z,2.93
2018-01-28T23:31:25.906Z,3.53
2018-01-28T23:33:54.252Z,3.43
2018-01-28T23:36:21.801Z,2.80
2018-01-28T23:38:49.384Z,2.97
2018-01-28T23:41:17.005Z,3.47
2018-01-28T23:43:44.550Z,2.67
2018-01-28T23:46:12.248Z,3.80
2018-01-28T23:48:39.892Z,2.90
2018-01-28T23:51:07.508Z,2.60
2018-01-28T23:53:35.087Z,2.27
2018-01-28T23:56:02.734Z,2.43
2018-01-28T23:58:30.575Z,3.23
